D/T METAR WX W/DIR W/SPE G/SPE TEMP DEWP
7/12/19 20:30 EIWF 072030Z 24023KT 1000 +RA BKN002 11/10 Q0999 R21/1///// +RA WSW (240°) 26.5mph 11°C 10°C
7/12/19 20:00 EIWF 072000Z 24023KT 1300 +RA BKN003 11/10 Q1000 REDZ R21/1///// +RA WSW (240°) 26.5mph 11°C 10°C
7/12/19 19:30 EIWF 071930Z 23024KT 3000 DZ OVC002 10/10 Q1001 RERA R21/1///// DZ SW (230°) 27.6mph 10°C 10°C
7/12/19 19:00 EIWF 071900Z 23021KT 2000 +RA SCT004 BKN006 10/09 Q1002 R21/1///// +RA SW (230°) 24.2mph 10°C 9°C
7/12/19 18:30 EIWF 071830Z 23022KT 8000 BKN008 BKN014 10/09 Q1003 REDZ R21/1///// SW (230°) 25.3mph 10°C 9°C
7/12/19 18:00 EIWF 071800Z 23022KT 7000 DZ SCT004 BKN007 10/09 Q1004 REDZ R21/1///// DZ SW (230°) 25.3mph 10°C 9°C
7/12/19 17:30 EIWF 071730Z 24022G32KT 4300 DZ BKN004 10/09 Q1005 R21/1///// DZ WSW (240°) 25.3mph 36.8mph 10°C 9°C
7/12/19 17:00 EIWF 071700Z 24021G31KT 9000 BKN008 10/09 Q1006 WSW (240°) 24.2mph 35.7mph 10°C 9°C
7/12/19 16:30 EIWF 071630Z 24021KT 8000 OVC007 10/09 Q1006 WSW (240°) 24.2mph 10°C 9°C
7/12/19 16:00 EIWF 071600Z 24019KT 210V270 9000 OVC008 10/09 Q1007 WSW (240°) 21.9mph 10°C 9°C
7/12/19 15:30 EIWF 071530Z 24019KT 9999 BKN008 10/08 Q1008 WSW (240°) 21.9mph 10°C 8°C
7/12/19 15:00 EIWF 071500Z 25019G30KT 220V280 9999 BKN009 10/09 Q1008 WSW (250°) 21.9mph 34.5mph 10°C 9°C
7/12/19 14:30 EIWF 071430Z 25016KT 210V290 9999 OVC009 10/09 Q1009 WSW (250°) 18.4mph 10°C 9°C
7/12/19 14:00 EIWF 071400Z 25017KT 210V290 9999 OVC009 10/09 Q1009 WSW (250°) 19.6mph 10°C 9°C
7/12/19 13:30 EIWF 071330Z 25015KT 200V300 9999 OVC009 10/09 Q1010 WSW (250°) 17.3mph 10°C 9°C
7/12/19 13:00 EIWF 071300Z 25018KT 220V290 9999 BKN007 10/09 Q1010 WSW (250°) 20.7mph 10°C 9°C
7/12/19 12:30 EIWF 071230Z 25011KT 220V300 9999 BKN007 10/09 Q1010 R21/0///// WSW (250°) 12.7mph 10°C 9°C
7/12/19 12:00 EIWF 071200Z 26013KT 210V300 9999 SCT004 BKN007 10/09 Q1011 R21/1///// W (260°) 15.0mph 10°C 9°C
7/12/19 11:30 EIWF 071130Z 25015KT 210V300 8000 SCT003 BKN006 10/09 Q1011 R21/1///// WSW (250°) 17.3mph 10°C 9°C
7/12/19 11:00 EIWF 071100Z VRB09G19KT 8000 BKN006 10/09 Q1012 R21/1///// N (0°) 10.4mph 21.9mph 10°C 9°C
7/12/19 10:30 EIWF 071030Z 25012KT 210V300 9999 BKN007 09/08 Q1012 R21/1///// WSW (250°) 13.8mph 9°C 8°C
7/12/19 10:00 EIWF 071000Z 24011KT 9999 BKN007 09/08 Q1012 R21/1///// WSW (240°) 12.7mph 9°C 8°C
7/12/19 09:30 EIWF 070930Z 25010KT 200V300 9999 BKN008 09/08 Q1012 R21/1///// WSW (250°) 11.5mph 9°C 8°C
7/12/19 09:00 EIWF 070900Z 25008KT 220V280 9999 FEW008 SCT030 08/07 Q1012 R21/1///// WSW (250°) 9.2mph 8°C 7°C
7/12/19 08:30 EIWF 070830Z 25008KT 220V280 9999 SCT010 SCT030 08/07 Q1012 R21/1///// WSW (250°) 9.2mph 8°C 7°C
7/12/19 08:00 EIWF 070800Z 25007KT 220V280 9999 FEW012 SCT030 07/06 Q1013 R21/1///// WSW (250°) 8.1mph 7°C 6°C
6/12/19 20:30 EIWF 062030Z 31005KT 280V360 9999 SCT022 SCT032 09/06 Q1010 R03/1///// NW (310°) 5.8mph 9°C 6°C
6/12/19 20:00 EIWF 062000Z 31010KT 280V340 9999 SCT029 09/05 Q1010 R03/1///// NW (310°) 11.5mph 9°C 5°C
6/12/19 19:30 EIWF 061930Z 30009KT 270V330 9999 BKN027 09/06 Q1009 R03/1///// WNW (300°) 10.4mph 9°C 6°C
6/12/19 19:00 EIWF 061900Z 28006KT 240V320 9999 SCT023 SCT029 09/06 Q1009 R03/1///// W (280°) 6.9mph 9°C 6°C
6/12/19 18:30 EIWF 061830Z 30008KT 260V330 9999 BKN026 09/05 Q1009 R03/1///// WNW (300°) 9.2mph 9°C 5°C
6/12/19 18:00 EIWF 061800Z 28007KT 210V320 9999 SCT025 10/06 Q1008 R03/1///// W (280°) 8.1mph 10°C 6°C
6/12/19 17:30 EIWF 061730Z 33011KT 290V350 9999 SCT025 09/06 Q1007 R03/1///// NNW (330°) 12.7mph 9°C 6°C
6/12/19 17:00 EIWF 061700Z 32011KT 280V350 9999 SCT031 10/06 Q1007 R03/1///// NW (320°) 12.7mph 10°C 6°C
6/12/19 16:30 EIWF 061630Z 31011KT 280V340 9999 FEW028 09/05 Q1006 R03/1///// NW (310°) 12.7mph 9°C 5°C
6/12/19 16:00 EIWF 061600Z 31016G28KT 280V340 9999 FEW030 10/06 Q1005 R03/1///// NW (310°) 18.4mph 32.2mph 10°C 6°C
6/12/19 15:30 EIWF 061530Z 31016G28KT 280V340 9999 FEW030 10/06 Q1005 R03/1///// NW (310°) 18.4mph 32.2mph 10°C 6°C
6/12/19 15:00 EIWF 061500Z 32016G26KT 290V350 9999 SCT029 10/05 Q1004 R03/1///// NW (320°) 18.4mph 29.9mph 10°C 5°C
6/12/19 14:30 EIWF 061430Z 32011KT 9999 SCT030 11/06 Q1004 R03/1///// NW (320°) 12.7mph 11°C 6°C
6/12/19 14:00 EIWF 061400Z 31014KT 280V340 9999 SCT029 SCT034 11/06 Q1004 R03/1///// NW (310°) 16.1mph 11°C 6°C
6/12/19 13:30 EIWF 061330Z 31015KT 280V350 9999 SCT032 SCT038 11/06 Q1003 R03/1///// NW (310°) 17.3mph 11°C 6°C
6/12/19 13:00 EIWF 061300Z 31016G27KT 280V340 9999 SCT028 SCT032 11/06 Q1003 R03/1///// NW (310°) 18.4mph 31.1mph 11°C 6°C
6/12/19 12:30 EIWF 061230Z 31015G30KT 270V350 9999 FEW026 BKN029 10/07 Q1003 R03/1///// NW (310°) 17.3mph 34.5mph 10°C 7°C
6/12/19 12:00 EIWF 061200Z 30014G24KT 9999 SCT029 BKN037 10/07 Q1003 R21/1///// WNW (300°) 16.1mph 27.6mph 10°C 7°C
6/12/19 11:30 EIWF 061130Z 29013KT 260V320 9999 SCT025 BKN030 10/08 Q1003 R21/1///// WNW (290°) 15.0mph 10°C 8°C
6/12/19 11:00 EIWF 061100Z 28011KT 240V310 9999 VCSH SCT018 BKN033 10/09 Q1003 R21/1///// VCSH W (280°) 12.7mph 10°C 9°C
6/12/19 10:30 EIWF 061030Z 29008KT 250V330 9999 SCT018 SCT030 10/09 Q1003 REDZ R21/1///// WNW (290°) 9.2mph 10°C 9°C
6/12/19 10:00 EIWF 061000Z 29013G24KT 250V330 7000 +DZ SCT004 BKN018 10/09 Q1003 R21/1///// +DZ WNW (290°) 15.0mph 27.6mph 10°C 9°C